createdAt,value
2018-04-02T00:00:49.620Z,1.42
2018-04-02T00:01:49.353Z,1.33
2018-04-02T00:02:49.587Z,1.39
2018-04-02T00:03:49.311Z,1.39
2018-04-02T00:04:49.562Z,1.4
2018-04-02T00:05:49.280Z,1.44
2018-04-02T00:06:49.523Z,1.47
2018-04-02T00:07:49.242Z,1.48
2018-04-02T00:08:49.516Z,1.47
2018-04-02T00:09:49.468Z,1.54
2018-04-02T00:10:49.449Z,1.47
2018-04-02T00:11:49.432Z,1.53
2018-04-02T00:12:49.415Z,1.58
2018-04-02T00:13:49.141Z,1.54
2018-04-02T00:14:49.122Z,1.6
2018-04-02T00:15:49.364Z,1.58
2018-04-02T00:16:49.100Z,1.54
2018-04-02T00:17:48.813Z,1.64
2018-04-02T00:18:49.055Z,1.68
2018-04-02T00:19:48.784Z,1.57
2018-04-02T00:20:49.019Z,1.66
2018-04-02T00:21:48.746Z,1.64
2018-04-02T00:22:49.245Z,1.64
2018-04-02T00:23:49.232Z,1.68
2018-04-02T00:24:49.210Z,1.66
2018-04-02T00:25:48.934Z,1.61
2018-04-02T00:26:48.661Z,1.51
2018-04-02T00:27:48.900Z,1.6
2018-04-02T00:28:49.142Z,1.58
2018-04-02T00:29:49.122Z,1.56
2018-04-02T00:30:49.115Z,1.57
2018-04-02T00:31:49.094Z,1.53
2018-04-02T00:32:48.556Z,1.56
2018-04-02T00:33:48.540Z,1.53
2018-04-02T00:34:49.043Z,1.56
2018-04-02T00:35:49.021Z,1.48
2018-04-02T00:36:48.787Z,1.48
2018-04-02T00:37:48.992Z,1.57
2018-04-02T00:38:48.984Z,1.48
2018-04-02T00:39:48.954Z,1.46
2018-04-02T00:40:48.939Z,1.53
2018-04-02T00:41:48.923Z,1.38
2018-04-02T00:42:48.403Z,1.5
2018-04-02T00:43:48.887Z,1.4
2018-04-02T00:44:48.610Z,1.4
2018-04-02T00:45:48.852Z,1.32
2018-04-02T00:46:48.581Z,1.39
2018-04-02T00:47:48.301Z,1.36
2018-04-02T00:48:48.331Z,1.28
2018-04-02T00:49:48.781Z,1.22
2018-04-02T00:50:48.768Z,1.18
2018-04-02T00:51:48.492Z,1.17
2018-04-02T00:52:48.472Z,1.04
2018-04-02T00:53:48.714Z,1.04
2018-04-02T00:54:48.439Z,1.02
2018-04-02T00:55:48.421Z,0.93
2018-04-02T00:56:48.662Z,0.94
2018-04-02T00:57:48.387Z,0.84
2018-04-02T00:58:48.372Z,0.82
2018-04-02T00:59:48.354Z,0.75
2018-04-02T01:00:48.333Z,0.71
2018-04-02T01:01:48.319Z,0.57
2018-04-02T01:02:48.560Z,0.56
2018-04-02T01:03:48.287Z,0.5
2018-04-02T01:04:48.271Z,0.44
2018-04-02T01:05:48.512Z,0.52
2018-04-02T01:06:48.490Z,0.39
2018-04-02T01:07:48.473Z,0.42
2018-04-02T01:08:48.197Z,0.48
2018-04-02T01:09:48.180Z,0.53
2018-04-02T01:10:48.163Z,0.53
2018-04-02T01:11:48.402Z,0.6
2018-04-02T01:12:48.386Z,0.63
2018-04-02T01:13:48.110Z,0.64
2018-04-02T01:14:48.100Z,0.71
2018-04-02T01:15:48.082Z,0.72
2018-04-02T01:16:48.317Z,0.85
2018-04-02T01:17:48.042Z,0.81
2018-04-02T01:18:48.030Z,0.84
2018-04-02T01:19:48.007Z,0.93
2018-04-02T01:20:47.732Z,0.92
2018-04-02T01:21:48.233Z,0.97
2018-04-02T01:22:47.953Z,1.02
2018-04-02T01:23:48.210Z,0.99
2018-04-02T01:24:47.924Z,1.03
2018-04-02T01:25:48.159Z,1.07
2018-04-02T01:26:47.884Z,1.1
2018-04-02T01:27:47.865Z,1.08
2018-04-02T01:28:48.114Z,1.03
2018-04-02T01:29:48.088Z,1.11
2018-04-02T01:30:47.558Z,1.12
2018-04-02T01:31:47.801Z,1.11
2018-04-02T01:32:48.038Z,1.02
2018-04-02T01:33:48.019Z,1.17
2018-04-02T01:34:48.002Z,1.2
2018-04-02T01:35:47.983Z,1.17
2018-04-02T01:36:47.710Z,1.11
2018-04-02T01:37:47.950Z,1.18
2018-04-02T01:38:47.674Z,1.22
2018-04-02T01:39:47.402Z,1.24
2018-04-02T01:40:47.640Z,1.2
2018-04-02T01:41:47.881Z,1.2
2018-04-02T01:42:47.867Z,1.28
2018-04-02T01:43:47.849Z,1.28
2018-04-02T01:44:47.830Z,1.29
2018-04-02T01:45:47.561Z,1.26
2018-04-02T01:46:47.799Z,1.32
2018-04-02T01:47:47.520Z,1.15
2018-04-02T01:48:47.503Z,1.28
2018-04-02T01:49:47.485Z,1.32
2018-04-02T01:50:47.471Z,1.39
2018-04-02T01:51:47.707Z,1.29
2018-04-02T01:52:47.693Z,1.44
2018-04-02T01:53:47.416Z,1.38
2018-04-02T01:54:47.402Z,1.39
2018-04-02T01:55:47.640Z,1.36
2018-04-02T01:56:47.364Z,1.38
2018-04-02T01:57:47.090Z,1.36
2018-04-02T01:58:47.072Z,1.39
2018-04-02T01:59:47.318Z,1.39
2018-04-02T02:00:47.299Z,1.46
2018-04-02T02:01:47.284Z,1.36
2018-04-02T02:02:47.264Z,1.47
2018-04-02T02:03:47.243Z,1.48
2018-04-02T02:04:47.235Z,1.44
2018-04-02T02:05:47.466Z,1.5
2018-04-02T02:06:47.450Z,1.5
2018-04-02T02:07:47.443Z,1.44
2018-04-02T02:08:47.160Z,1.48
2018-04-02T02:09:47.408Z,1.53
2018-04-02T02:10:47.389Z,1.53
2018-04-02T02:11:47.376Z,1.56
2018-04-02T02:12:47.350Z,1.44
2018-04-02T02:13:47.332Z,1.56
2018-04-02T02:14:47.055Z,1.48
2018-04-02T02:15:46.781Z,1.42
2018-04-02T02:16:46.765Z,1.47
2018-04-02T02:17:47.003Z,1.47
2018-04-02T02:18:46.989Z,1.5
2018-04-02T02:19:46.968Z,1.44
2018-04-02T02:20:47.211Z,1.44
2018-04-02T02:21:47.195Z,1.4
2018-04-02T02:22:46.924Z,1.36
2018-04-02T02:23:47.160Z,1.39
2018-04-02T02:24:46.886Z,1.39
2018-04-02T02:25:46.867Z,1.32
2018-04-02T02:26:46.849Z,1.24
2018-04-02T02:27:46.834Z,1.32
2018-04-02T02:28:46.816Z,1.3
2018-04-02T02:29:46.797Z,1.24
2018-04-02T02:30:47.040Z,1.22
2018-04-02T02:31:46.774Z,1.22
2018-04-02T02:32:47.015Z,1.21
2018-04-02T02:33:46.741Z,1.11
2018-04-02T02:34:47.039Z,1.12
2018-04-02T02:35:47.240Z,1.12
2018-04-02T02:36:46.419Z,0.99
2018-04-02T02:37:46.406Z,1.04
2018-04-02T02:38:46.646Z,0.97
2018-04-02T02:39:46.900Z,1
2018-04-02T02:40:46.881Z,0.97
2018-04-02T02:41:46.878Z,0.94
2018-04-02T02:42:46.842Z,0.99
2018-04-02T02:43:46.823Z,0.99
2018-04-02T02:44:46.541Z,0.93
2018-04-02T02:45:46.533Z,0.93
2018-04-02T02:46:46.510Z,0.94
2018-04-02T02:47:46.749Z,0.94
2018-04-02T02:48:46.738Z,0.99
2018-04-02T02:49:46.453Z,0.85
2018-04-02T02:50:46.705Z,0.92
2018-04-02T02:51:46.679Z,0.9
2018-04-02T02:52:46.406Z,0.82
2018-04-02T02:53:46.390Z,0.82
2018-04-02T02:54:46.374Z,0.89
2018-04-02T02:55:46.094Z,0.82
2018-04-02T02:56:46.335Z,0.76
2018-04-02T02:57:46.581Z,0.74
2018-04-02T02:58:46.570Z,0.72
2018-04-02T02:59:46.543Z,0.66
2018-04-02T03:00:46.269Z,0.64
2018-04-02T03:01:46.250Z,0.61
2018-04-02T03:02:46.232Z,0.63
2018-04-02T03:03:46.212Z,0.56
2018-04-02T03:04:46.196Z,0.53
2018-04-02T03:05:45.921Z,0.57
2018-04-02T03:06:46.416Z,0.44
2018-04-02T03:07:46.147Z,0.41
2018-04-02T03:08:46.125Z,0.42
2018-04-02T03:09:46.368Z,0.37
2018-04-02T03:10:46.355Z,0.39
2018-04-02T03:11:45.816Z,0.31
2018-04-02T03:12:46.312Z,0.39
2018-04-02T03:13:45.779Z,0.21
2018-04-02T03:14:46.281Z,0.26
2018-04-02T03:15:46.266Z,0.24
2018-04-02T03:16:45.986Z,0.17
2018-04-02T03:17:45.971Z,0.19
2018-04-02T03:18:46.217Z,0.21
2018-04-02T03:19:45.675Z,0.17
2018-04-02T03:20:45.915Z,0.27
2018-04-02T03:21:46.156Z,0.31
2018-04-02T03:22:45.913Z,0.31
2018-04-02T03:23:45.608Z,0.32
2018-04-02T03:24:46.103Z,0.42
2018-04-02T03:25:45.829Z,0.39
2018-04-02T03:26:45.811Z,0.37
2018-04-02T03:27:46.106Z,0.37
2018-04-02T03:28:45.774Z,0.44
2018-04-02T03:29:45.760Z,0.5
2018-04-02T03:30:45.751Z,0.45
2018-04-02T03:31:45.745Z,0.52
2018-04-02T03:32:45.965Z,0.56
2018-04-02T03:33:45.952Z,0.56
2018-04-02T03:34:45.929Z,0.5
2018-04-02T03:35:45.906Z,0.5
2018-04-02T03:36:45.890Z,0.48
2018-04-02T03:37:45.873Z,0.47
2018-04-02T03:38:45.863Z,0.37
2018-04-02T03:39:45.838Z,0.45
2018-04-02T03:40:45.567Z,0.23
2018-04-02T03:41:45.809Z,0.28
2018-04-02T03:42:45.527Z,0.16
2018-04-02T03:43:45.773Z,0.17
2018-04-02T03:44:45.499Z,0.19
2018-04-02T03:45:45.739Z,0.17
2018-04-02T03:46:45.715Z,0.1
2018-04-02T03:47:45.700Z,0.08
2018-04-02T03:48:45.423Z,0.06
2018-04-02T03:49:45.406Z,0.02
2018-04-02T03:50:45.647Z,-0.04
2018-04-02T03:51:45.633Z,-0.1
2018-04-02T03:52:45.349Z,-0.13
2018-04-02T03:53:45.335Z,-0.1
2018-04-02T03:54:45.578Z,-0.18
2018-04-02T03:55:45.039Z,-0.27
2018-04-02T03:56:45.536Z,-0.28
2018-04-02T03:57:45.262Z,-0.31
2018-04-02T03:58:45.501Z,-0.31
2018-04-02T03:59:45.232Z,-0.33
2018-04-02T04:00:44.950Z,-0.41
2018-04-02T04:01:45.452Z,-0.38
2018-04-02T04:02:45.431Z,-0.56
2018-04-02T04:03:45.417Z,-0.51
2018-04-02T04:04:45.135Z,-0.46
2018-04-02T04:05:45.586Z,-0.46
2018-04-02T04:06:45.100Z,-0.48
2018-04-02T04:07:44.825Z,-0.52
2018-04-02T04:08:45.064Z,-0.48
2018-04-02T04:09:45.307Z,-0.46
2018-04-02T04:10:45.026Z,-0.56
2018-04-02T04:11:45.268Z,-0.49
2018-04-02T04:12:45.248Z,-0.48
2018-04-02T04:13:45.228Z,-0.46
2018-04-02T04:14:45.214Z,-0.48
2018-04-02T04:15:44.940Z,-0.46
2018-04-02T04:16:45.178Z,-0.43
2018-04-02T04:17:45.169Z,-0.49
2018-04-02T04:18:45.153Z,-0.52
2018-04-02T04:19:44.606Z,-0.51
2018-04-02T04:20:44.845Z,-0.38
2018-04-02T04:21:44.825Z,-0.4
2018-04-02T04:22:45.067Z,-0.38
2018-04-02T04:23:45.064Z,-0.31
2018-04-02T04:24:45.030Z,-0.2
2018-04-02T04:25:44.497Z,-0.22
2018-04-02T04:26:44.995Z,-0.16
2018-04-02T04:27:44.463Z,-0.13
2018-04-02T04:28:44.702Z,-0.07
2018-04-02T04:29:44.939Z,-0.04
2018-04-02T04:30:44.923Z,0.08
2018-04-02T04:31:44.907Z,0.13
2018-04-02T04:32:44.632Z,0.13
2018-04-02T04:33:44.877Z,0.14
2018-04-02T04:34:44.850Z,0.1
2018-04-02T04:35:44.831Z,0.16
2018-04-02T04:36:44.820Z,0.14
2018-04-02T04:37:44.796Z,0.09
2018-04-02T04:38:44.786Z,0.1
2018-04-02T04:39:44.823Z,0.13
2018-04-02T04:40:44.484Z,0.17
2018-04-02T04:41:44.472Z,0.06
2018-04-02T04:42:44.446Z,0.13
2018-04-02T04:43:44.688Z,0.16
2018-04-02T04:44:44.670Z,0.09
2018-04-02T04:45:44.654Z,0.09
2018-04-02T04:46:44.634Z,0.21
2018-04-02T04:47:44.101Z,0.19
2018-04-02T04:48:44.346Z,0.17
2018-04-02T04:49:44.065Z,0.21
2018-04-02T04:50:44.304Z,0.16
2018-04-02T04:51:44.287Z,0.24
2018-04-02T04:52:44.530Z,0.32
2018-04-02T04:53:44.253Z,0.32
2018-04-02T04:54:43.976Z,0.26
2018-04-02T04:55:43.958Z,0.35
2018-04-02T04:56:44.457Z,0.35
2018-04-02T04:57:44.184Z,0.42
2018-04-02T04:58:44.421Z,0.48
2018-04-02T04:59:44.404Z,0.48
2018-04-02T05:00:44.391Z,0.48
2018-04-02T05:01:44.376Z,0.57
2018-04-02T05:02:44.348Z,0.61
2018-04-02T05:03:44.074Z,0.47
2018-04-02T05:04:44.315Z,0.66
2018-04-02T05:05:44.039Z,0.67
2018-04-02T05:06:44.326Z,0.61
2018-04-02T05:07:44.005Z,0.76
2018-04-02T05:08:43.992Z,0.78
2018-04-02T05:09:43.967Z,0.72
2018-04-02T05:10:43.948Z,0.85
2018-04-02T05:11:44.188Z,0.89
2018-04-02T05:12:44.177Z,0.81
2018-04-02T05:13:43.915Z,0.79
2018-04-02T05:14:44.139Z,0.81
2018-04-02T05:15:44.127Z,0.92
2018-04-02T05:16:43.843Z,0.86
2018-04-02T05:17:43.924Z,0.93
2018-04-02T05:18:43.812Z,0.93
2018-04-02T05:19:43.791Z,0.97
2018-04-02T05:20:44.029Z,1.03
2018-04-02T05:21:43.756Z,1.1
2018-04-02T05:22:44.006Z,1.1
2018-04-02T05:23:43.724Z,1.02
2018-04-02T05:24:43.960Z,1.07
2018-04-02T05:25:43.686Z,1.08
2018-04-02T05:26:43.928Z,1.1
2018-04-02T05:27:43.651Z,1.07
2018-04-02T05:28:43.635Z,1.08
2018-04-02T05:29:43.877Z,1.11
2018-04-02T05:30:43.341Z,1.12
2018-04-02T05:31:43.842Z,1.11
2018-04-02T05:32:43.874Z,1.18
2018-04-02T05:33:43.805Z,1.22
2018-04-02T05:34:43.792Z,1.21
2018-04-02T05:35:43.773Z,1.2
2018-04-02T05:36:43.495Z,1.3
2018-04-02T05:37:43.480Z,1.33
2018-04-02T05:38:43.203Z,1.32
2018-04-02T05:39:43.812Z,1.32
2018-04-02T05:40:43.685Z,1.32
2018-04-02T05:41:43.408Z,1.42
2018-04-02T05:42:43.396Z,1.42
2018-04-02T05:43:43.434Z,1.44
2018-04-02T05:44:43.618Z,1.48
2018-04-02T05:45:43.596Z,1.56
2018-04-02T05:46:43.578Z,1.47
2018-04-02T05:47:43.047Z,1.58
2018-04-02T05:48:43.290Z,1.54
2018-04-02T05:49:43.531Z,1.57
2018-04-02T05:50:42.998Z,1.56
2018-04-02T05:51:43.495Z,1.56
2018-04-02T05:52:43.480Z,1.58
2018-04-02T05:53:43.204Z,1.64
2018-04-02T05:54:42.928Z,1.68
2018-04-02T05:55:43.430Z,1.58
2018-04-02T05:56:43.160Z,1.72
2018-04-02T05:57:43.135Z,1.74
2018-04-02T05:58:43.376Z,1.69
2018-04-02T05:59:43.121Z,1.83
2018-04-02T06:00:43.340Z,1.86
2018-04-02T06:01:43.068Z,1.86
2018-04-02T06:02:43.313Z,1.86
2018-04-02T06:03:43.032Z,1.82
2018-04-02T06:04:43.018Z,1.93
2018-04-02T06:05:42.998Z,1.9
2018-04-02T06:06:42.983Z,2.01
2018-04-02T06:07:42.965Z,1.97
2018-04-02T06:08:42.946Z,2.13
2018-04-02T06:09:42.674Z,2.08
2018-04-02T06:10:42.917Z,2.04
2018-04-02T06:11:43.158Z,2.06
2018-04-02T06:12:42.917Z,2.12
2018-04-02T06:13:42.607Z,2.16
2018-04-02T06:14:42.850Z,2.2
2018-04-02T06:15:42.833Z,2.24
2018-04-02T06:16:43.231Z,2.24
2018-04-02T06:17:42.799Z,2.26
2018-04-02T06:18:42.781Z,2.4
2018-04-02T06:19:43.027Z,2.31
2018-04-02T06:20:43.007Z,2.34
2018-04-02T06:21:42.477Z,2.38
2018-04-02T06:22:42.717Z,2.47
2018-04-02T06:23:42.699Z,2.49
2018-04-02T06:24:42.942Z,2.58
2018-04-02T06:25:42.666Z,2.55
2018-04-02T06:26:42.909Z,2.65
2018-04-02T06:27:42.642Z,2.59
2018-04-02T06:28:42.621Z,2.62
2018-04-02T06:29:42.858Z,2.77
2018-04-02T06:30:42.844Z,2.76
2018-04-02T06:31:43.012Z,2.78
2018-04-02T06:32:42.553Z,2.85
2018-04-02T06:33:42.537Z,2.83
2018-04-02T06:34:42.523Z,2.87
2018-04-02T06:35:42.769Z,2.99
2018-04-02T06:36:42.746Z,2.88
2018-04-02T06:37:42.480Z,2.98
2018-04-02T06:38:42.459Z,3.01
2018-04-02T06:39:42.709Z,3.05
2018-04-02T06:40:42.685Z,3.08
2018-04-02T06:41:42.152Z,2.98
2018-04-02T06:42:42.653Z,3.03
2018-04-02T06:43:42.633Z,3.11
2018-04-02T06:44:42.615Z,3.13
2018-04-02T06:45:42.344Z,3.16
2018-04-02T06:46:42.588Z,3.16
2018-04-02T06:47:42.570Z,3.21
2018-04-02T06:48:42.304Z,3.21
2018-04-02T06:49:42.282Z,3.2
2018-04-02T06:50:42.522Z,3.32
2018-04-02T06:51:41.991Z,3.34
2018-04-02T06:52:42.232Z,3.32
2018-04-02T06:53:42.216Z,3.46
2018-04-02T06:54:42.461Z,3.43
2018-04-02T06:55:42.444Z,3.48
2018-04-02T06:56:42.177Z,3.54
2018-04-02T06:57:41.899Z,3.6
2018-04-02T06:58:42.406Z,3.56
2018-04-02T06:59:42.126Z,3.6
2018-04-02T07:00:42.117Z,3.69
2018-04-02T07:01:42.351Z,3.78
2018-04-02T07:02:42.338Z,3.75
2018-04-02T07:03:42.322Z,3.82
2018-04-02T07:04:42.046Z,3.79
2018-04-02T07:05:42.289Z,3.82
2018-04-02T07:06:42.016Z,3.85
2018-04-02T07:07:41.741Z,3.85
2018-04-02T07:08:41.726Z,3.82
2018-04-02T07:09:42.228Z,3.82
2018-04-02T07:10:41.953Z,3.79
2018-04-02T07:11:42.195Z,3.74
2018-04-02T07:12:41.927Z,3.86
2018-04-02T07:13:42.168Z,3.84
2018-04-02T07:14:41.634Z,3.86
2018-04-02T07:15:41.624Z,3.82
2018-04-02T07:16:41.862Z,3.82
2018-04-02T07:17:41.845Z,3.89
2018-04-02T07:18:41.834Z,3.84
2018-04-02T07:19:41.559Z,3.78
2018-04-02T07:20:41.804Z,3.92
2018-04-02T07:21:41.790Z,3.96
2018-04-02T07:22:41.769Z,3.94
2018-04-02T07:23:42.022Z,3.99
2018-04-02T07:24:41.481Z,4.04
2018-04-02T07:25:41.731Z,4.04
2018-04-02T07:26:41.710Z,4.1
2018-04-02T07:27:41.958Z,4.15
2018-04-02T07:28:41.937Z,4.15
2018-04-02T07:29:41.407Z,4.18
2018-04-02T07:30:41.910Z,4.17
2018-04-02T07:31:41.636Z,4.12
2018-04-02T07:32:41.617Z,4.18
2018-04-02T07:33:41.345Z,4.21
2018-04-02T07:34:41.592Z,4.15
2018-04-02T07:35:41.572Z,4.17
2018-04-02T07:36:41.303Z,4.12
2018-04-02T07:37:41.286Z,4.15
2018-04-02T07:38:41.529Z,4.17
2018-04-02T07:39:41.771Z,4.15
2018-04-02T07:40:41.497Z,4.21
2018-04-02T07:41:41.489Z,4.29
2018-04-02T07:42:41.725Z,4.32
2018-04-02T07:43:41.456Z,4.33
2018-04-02T07:44:41.439Z,4.28
2018-04-02T07:45:41.424Z,4.26
2018-04-02T07:46:41.472Z,4.28
2018-04-02T07:47:41.393Z,4.32
2018-04-02T07:48:41.121Z,4.29
2018-04-02T07:49:41.373Z,4.3
2018-04-02T07:50:41.437Z,4.39
2018-04-02T07:51:41.335Z,4.38
2018-04-02T07:52:41.321Z,4.51
2018-04-02T07:53:41.561Z,4.47
2018-04-02T07:54:41.551Z,4.53
2018-04-02T07:55:41.018Z,4.58
2018-04-02T07:56:41.295Z,4.53
2018-04-02T07:57:41.507Z,4.48
2018-04-02T07:58:41.231Z,4.56
2018-04-02T07:59:41.481Z,4.51
2018-04-02T08:00:41.460Z,4.51
2018-04-02T08:01:40.930Z,4.48
2018-04-02T08:02:41.474Z,4.61
2018-04-02T08:03:41.161Z,4.65
2018-04-02T08:04:41.407Z,4.6
2018-04-02T08:05:41.128Z,4.56
2018-04-02T08:06:41.121Z,4.56
2018-04-02T08:07:40.843Z,4.53
2018-04-02T08:08:41.129Z,4.44
2018-04-02T08:09:41.330Z,4.56
2018-04-02T08:10:41.063Z,4.44
2018-04-02T08:11:41.304Z,4.56
2018-04-02T08:12:41.037Z,4.57
2018-04-02T08:13:41.016Z,4.5
2018-04-02T08:14:41.255Z,4.65
2018-04-02T08:15:40.726Z,4.61
2018-04-02T08:16:40.968Z,4.71
2018-04-02T08:17:41.217Z,4.79
2018-04-02T08:18:40.940Z,4.95
2018-04-02T08:19:40.925Z,5.03
2018-04-02T08:20:40.653Z,5.18
2018-04-02T08:21:40.899Z,5.2
2018-04-02T08:22:40.885Z,5.36
2018-04-02T08:23:40.867Z,5.34
2018-04-02T08:24:41.112Z,5.51
2018-04-02T08:25:41.103Z,5.55
2018-04-02T08:26:41.087Z,5.6
2018-04-02T08:27:40.814Z,5.66
2018-04-02T08:28:41.053Z,5.72
2018-04-02T08:29:41.042Z,5.75
2018-04-02T08:30:40.770Z,5.92
2018-04-02T08:31:40.760Z,5.96
2018-04-02T08:32:40.831Z,6.03
2018-04-02T08:33:40.992Z,6.21
2018-04-02T08:34:40.977Z,6.28
2018-04-02T08:35:40.708Z,6.43
2018-04-02T08:36:40.693Z,6.6
2018-04-02T08:37:40.416Z,6.8
2018-04-02T08:38:40.470Z,6.85
2018-04-02T08:39:40.910Z,6.98
2018-04-02T08:40:40.900Z,7.03
2018-04-02T08:41:40.627Z,6.98
2018-04-02T08:42:40.878Z,7.01
2018-04-02T08:43:40.854Z,7.03
2018-04-02T08:44:40.584Z,7.03
2018-04-02T08:45:40.828Z,7.05
2018-04-02T08:46:40.566Z,7
2018-04-02T08:47:40.543Z,6.88
2018-04-02T08:48:40.534Z,7.01
2018-04-02T08:49:40.287Z,7.05
2018-04-02T08:50:40.766Z,7
2018-04-02T08:51:40.757Z,7.15
2018-04-02T08:52:40.486Z,7.15
2018-04-02T08:53:40.466Z,7.33
2018-04-02T08:54:40.715Z,7.52
2018-04-02T08:55:40.188Z,7.58
2018-04-02T08:56:40.543Z,7.77
2018-04-02T08:57:40.680Z,7.96
2018-04-02T08:58:40.408Z,8.03
2018-04-02T08:59:40.134Z,8.04
2018-04-02T09:00:40.726Z,7.91
2018-04-02T09:01:40.111Z,7.92
2018-04-02T09:02:40.358Z,7.93
2018-04-02T09:03:40.342Z,7.96
2018-04-02T09:04:40.333Z,8.01
2018-04-02T09:05:40.319Z,7.89
2018-04-02T09:06:40.050Z,7.78
2018-04-02T09:07:40.037Z,7.83
2018-04-02T09:08:40.542Z,7.78
2018-04-02T09:09:40.533Z,7.86
2018-04-02T09:10:40.260Z,7.77
2018-04-02T09:11:40.504Z,7.7
2018-04-02T09:12:40.491Z,7.8
2018-04-02T09:13:40.223Z,7.78
2018-04-02T09:14:40.475Z,7.78
2018-04-02T09:15:40.200Z,7.8
2018-04-02T09:16:40.188Z,7.82
2018-04-02T09:17:40.621Z,7.8
2018-04-02T09:18:40.160Z,7.86
2018-04-02T09:19:40.406Z,7.82
2018-04-02T09:20:40.138Z,7.83
2018-04-02T09:21:40.126Z,7.85
2018-04-02T09:22:40.428Z,7.64
2018-04-02T09:23:40.158Z,7.59
2018-04-02T09:24:40.098Z,7.55
2018-04-02T09:25:40.078Z,7.74
2018-04-02T09:26:40.075Z,7.86
2018-04-02T09:27:40.054Z,8.03
2018-04-02T09:28:40.299Z,7.96
2018-04-02T09:29:40.030Z,8.06
2018-04-02T09:30:40.018Z,8.21
2018-04-02T09:31:40.261Z,8.26
2018-04-02T09:32:40.250Z,8.32
2018-04-02T09:33:40.237Z,8.34
2018-04-02T09:34:40.230Z,8.39
2018-04-02T09:35:39.963Z,8.19
2018-04-02T09:36:39.946Z,8.14
2018-04-02T09:37:40.193Z,7.99
2018-04-02T09:38:39.924Z,8.04
2018-04-02T09:39:39.652Z,8.09
2018-04-02T09:40:39.900Z,8.07
2018-04-02T09:41:40.149Z,8.19
2018-04-02T09:42:40.134Z,8.19
2018-04-02T09:43:39.604Z,8.16
2018-04-02T09:44:39.849Z,8.26
2018-04-02T09:45:40.094Z,8.09
2018-04-02T09:46:40.087Z,7.98
2018-04-02T09:47:40.028Z,8.01
2018-04-02T09:48:39.547Z,8.07
2018-04-02T09:49:39.534Z,7.98
2018-04-02T09:50:39.521Z,7.99
2018-04-02T09:51:40.034Z,7.96
2018-04-02T09:52:39.758Z,8.1
2018-04-02T09:53:40.022Z,8.24
2018-04-02T09:54:39.738Z,8.21
2018-04-02T09:55:39.988Z,8.39
2018-04-02T09:56:39.970Z,8.65
2018-04-02T09:57:39.697Z,8.68
2018-04-02T09:58:39.428Z,8.97
2018-04-02T09:59:39.692Z,8.98
2018-04-02T10:00:39.922Z,9
2018-04-02T10:01:39.649Z,9.04
2018-04-02T10:02:39.900Z,9.01
2018-04-02T10:03:39.368Z,9.08
2018-04-02T10:04:40.489Z,9.14
2018-04-02T10:05:39.602Z,9.03
2018-04-02T10:06:39.858Z,9.01
2018-04-02T10:07:39.843Z,8.85
2018-04-02T10:08:39.570Z,8.77
2018-04-02T10:09:39.302Z,8.6
2018-04-02T10:10:39.616Z,8.69
2018-04-02T10:11:39.280Z,8.57
2018-04-02T10:12:39.785Z,8.47
2018-04-02T10:13:39.256Z,8.43
2018-04-02T10:14:39.760Z,8.47
2018-04-02T10:15:39.857Z,8.64
2018-04-02T10:16:39.480Z,8.77
2018-04-02T10:17:39.474Z,8.83
2018-04-02T10:18:39.458Z,8.79
2018-04-02T10:19:39.715Z,8.71
2018-04-02T10:20:39.474Z,8.64
2018-04-02T10:21:39.427Z,8.74
2018-04-02T10:22:39.673Z,8.71
2018-04-02T10:23:39.402Z,8.85
2018-04-02T10:24:39.134Z,8.9
2018-04-02T10:25:39.641Z,8.94
2018-04-02T10:26:39.626Z,9.08
2018-04-02T10:27:39.356Z,9.03
2018-04-02T10:28:39.606Z,9.01
2018-04-02T10:29:39.804Z,9
2018-04-02T10:30:39.324Z,9.14
2018-04-02T10:31:39.573Z,9.16
2018-04-02T10:32:39.317Z,9.16
2018-04-02T10:33:39.294Z,9.17
2018-04-02T10:34:39.024Z,9.23
2018-04-02T10:35:39.277Z,9.21
2018-04-02T10:36:39.519Z,9.05
2018-04-02T10:37:39.507Z,9.08
2018-04-02T10:38:38.980Z,9.09
2018-04-02T10:39:39.229Z,9.14
2018-04-02T10:40:39.476Z,9.14
2018-04-02T10:41:39.471Z,9.19
2018-04-02T10:42:39.196Z,9.23
2018-04-02T10:43:39.455Z,9.24
2018-04-02T10:44:39.434Z,9.26
2018-04-02T10:45:39.164Z,9.32
2018-04-02T10:46:39.165Z,9.48
2018-04-02T10:47:39.402Z,9.53
2018-04-02T10:48:39.514Z,9.62
2018-04-02T10:49:39.381Z,9.55
2018-04-02T10:50:39.111Z,9.55
2018-04-02T10:51:38.843Z,9.5
2018-04-02T10:52:39.348Z,9.55
2018-04-02T10:53:39.085Z,9.34
2018-04-02T10:54:38.813Z,9.34
2018-04-02T10:55:39.061Z,9.29
2018-04-02T10:56:39.049Z,9.44
2018-04-02T10:57:39.039Z,9.44
2018-04-02T10:58:39.291Z,9.29
2018-04-02T10:59:39.328Z,9.24
2018-04-02T11:00:39.266Z,9.05
2018-04-02T11:01:38.743Z,8.95
2018-04-02T11:02:39.252Z,8.85
2018-04-02T11:03:38.720Z,8.71
2018-04-02T11:04:39.226Z,8.69
2018-04-02T11:05:38.979Z,8.87
2018-04-02T11:06:39.207Z,9.04
2018-04-02T11:07:39.190Z,9.09
2018-04-02T11:08:39.191Z,9.34
2018-04-02T11:09:39.175Z,9.19
2018-04-02T11:10:39.163Z,9.05
2018-04-02T11:11:39.156Z,8.87
2018-04-02T11:12:38.886Z,8.83
2018-04-02T11:13:39.345Z,8.86
2018-04-02T11:14:38.859Z,8.94
2018-04-02T11:15:39.114Z,8.89
2018-04-02T11:16:38.837Z,8.82
2018-04-02T11:17:39.088Z,8.72
2018-04-02T11:18:38.816Z,8.76
2018-04-02T11:19:39.062Z,8.72
2018-04-02T11:20:39.053Z,8.77
2018-04-02T11:21:39.042Z,8.92
2018-04-02T11:22:39.034Z,8.94
2018-04-02T11:23:39.019Z,9.05
2018-04-02T11:24:38.752Z,9.27
2018-04-02T11:25:38.741Z,9.44
2018-04-02T11:26:38.729Z,9.55
2018-04-02T11:27:38.721Z,9.6
2018-04-02T11:28:38.707Z,9.6
2018-04-02T11:29:38.439Z,9.52
2018-04-02T11:30:38.953Z,9.44
2018-04-02T11:31:38.933Z,9.5
2018-04-02T11:32:38.406Z,9.62
2018-04-02T11:33:38.398Z,9.85
2018-04-02T11:34:38.643Z,10.02
2018-04-02T11:35:38.633Z,10.17
2018-04-02T11:36:38.627Z,10.25
2018-04-02T11:37:38.888Z,10.39
2018-04-02T11:38:38.606Z,10.51
2018-04-02T11:39:38.855Z,10.63
2018-04-02T11:40:38.611Z,10.8
2018-04-02T11:41:38.314Z,10.87
2018-04-02T11:42:38.817Z,10.79
2018-04-02T11:43:38.550Z,10.91
2018-04-02T11:44:38.796Z,11.05
2018-04-02T11:45:38.278Z,11.28
2018-04-02T11:46:38.782Z,11.18
2018-04-02T11:47:38.254Z,11.15
2018-04-02T11:48:38.760Z,11.05
2018-04-02T11:49:38.495Z,11.15
2018-04-02T11:50:38.484Z,11.16
2018-04-02T11:51:38.735Z,11.09
2018-04-02T11:52:38.469Z,11.1
2018-04-02T11:53:38.455Z,11.2
2018-04-02T11:54:38.704Z,11.13
2018-04-02T11:55:38.696Z,11.1
2018-04-02T11:56:38.428Z,11.15
2018-04-02T11:57:38.165Z,11.1
2018-04-02T11:58:38.411Z,11.1
2018-04-02T11:59:38.658Z,11.15
2018-04-02T12:00:38.397Z,11.2
2018-04-02T12:01:38.387Z,11.02
2018-04-02T12:02:38.372Z,10.88
2018-04-02T12:03:38.106Z,10.8
2018-04-02T12:04:38.360Z,10.8
2018-04-02T12:05:38.346Z,10.59
2018-04-02T12:06:38.338Z,10.46
2018-04-02T12:07:38.335Z,10.2
2018-04-02T12:08:38.577Z,9.99
2018-04-02T12:09:38.309Z,9.93
2018-04-02T12:10:38.341Z,9.8
2018-04-02T12:11:38.553Z,9.72
2018-04-02T12:12:38.548Z,9.66
2018-04-02T12:13:38.535Z,9.66
2018-04-02T12:14:38.520Z,9.71
2018-04-02T12:15:38.255Z,9.66
2018-04-02T12:16:38.500Z,9.77
2018-04-02T12:17:38.233Z,9.93
2018-04-02T12:18:37.967Z,9.98
2018-04-02T12:19:38.221Z,10.25
2018-04-02T12:20:38.272Z,10.35
2018-04-02T12:21:38.694Z,10.44
2018-04-02T12:22:38.699Z,10.55
2018-04-02T12:23:37.919Z,10.63
2018-04-02T12:24:37.910Z,10.76
2018-04-02T12:25:38.159Z,10.75
2018-04-02T12:26:38.412Z,10.77
2018-04-02T12:27:37.881Z,10.92
2018-04-02T12:28:38.389Z,10.91
2018-04-02T12:29:38.124Z,10.91
2018-04-02T12:30:38.371Z,10.79
2018-04-02T12:31:38.102Z,10.66
2018-04-02T12:32:38.093Z,10.65
2018-04-02T12:33:38.117Z,10.55
2018-04-02T12:34:38.075Z,10.55
2018-04-02T12:35:38.330Z,10.47
2018-04-02T12:36:38.059Z,10.44
2018-04-02T12:37:38.044Z,10.44
2018-04-02T12:38:38.389Z,10.47
2018-04-02T12:39:38.285Z,10.38
2018-04-02T12:40:38.336Z,10.46
2018-04-02T12:41:38.012Z,10.42
2018-04-02T12:42:38.000Z,10.36
2018-04-02T12:43:38.278Z,10.36
2018-04-02T12:44:38.093Z,10.42
2018-04-02T12:45:37.972Z,10.32
2018-04-02T12:46:37.964Z,10.17
2018-04-02T12:47:38.221Z,10.14
2018-04-02T12:48:37.687Z,10.1
2018-04-02T12:49:38.197Z,10.1
2018-04-02T12:50:38.183Z,10.18
2018-04-02T12:51:37.914Z,10.03
2018-04-02T12:52:37.908Z,10.02
2018-04-02T12:53:37.899Z,9.9
2018-04-02T12:54:37.887Z,9.92
2018-04-02T12:55:37.875Z,9.77
2018-04-02T12:56:38.128Z,9.67
2018-04-02T12:57:38.122Z,9.55
2018-04-02T12:58:38.107Z,9.5
2018-04-02T12:59:37.581Z,9.48
2018-04-02T13:00:37.826Z,9.48
2018-04-02T13:01:38.075Z,9.45
2018-04-02T13:02:37.815Z,9.48
2018-04-02T13:03:37.800Z,9.52
2018-04-02T13:04:38.242Z,9.48
2018-04-02T13:05:37.777Z,9.45
2018-04-02T13:06:38.027Z,9.55
2018-04-02T13:07:38.015Z,9.47
2018-04-02T13:08:37.750Z,9.56
2018-04-02T13:09:37.994Z,9.59
2018-04-02T13:10:37.840Z,9.7
2018-04-02T13:11:37.721Z,9.75
2018-04-02T13:12:37.708Z,9.85
2018-04-02T13:13:37.439Z,9.82
2018-04-02T13:14:37.429Z,9.85
2018-04-02T13:15:37.945Z,9.88
2018-04-02T13:16:37.925Z,9.92
2018-04-02T13:17:37.662Z,9.77